createdAt,value
2023-03-29T00:01:37.354Z,1.38
2023-03-29T00:04:41.450Z,1.38
2023-03-29T00:07:44.342Z,1.65
2023-03-29T00:10:49.727Z,1.10
2023-03-29T00:13:53.285Z,1.00
2023-03-29T00:16:56.351Z,1.30
2023-03-29T00:19:59.330Z,1.35
2023-03-29T00:23:02.316Z,1.58
2023-03-29T00:26:07.813Z,1.70
2023-03-29T00:29:11.066Z,1.50
2023-03-29T00:32:14.759Z,1.13
2023-03-29T00:35:17.654Z,1.50
2023-03-29T00:38:20.712Z,1.38
2023-03-29T00:41:23.766Z,1.58
2023-03-29T00:45:04.786Z,0.90
2023-03-29T00:48:13.844Z,1.35
2023-03-29T00:51:19.018Z,1.52
2023-03-29T00:54:21.756Z,1.50
2023-03-29T00:57:27.710Z,1.45
2023-03-29T01:00:37.167Z,2.27
2023-03-29T01:03:49.543Z,1.33
2023-03-29T01:07:24.538Z,1.42
2023-03-29T01:10:37.833Z,1.45
2023-03-29T01:14:00.152Z,1.38
2023-03-29T01:17:04.650Z,2.00
2023-03-29T01:20:17.699Z,1.55
2023-03-29T01:23:38.398Z,1.30
2023-03-29T01:26:44.086Z,1.23
2023-03-29T01:29:57.408Z,3.58
2023-03-29T01:33:10.676Z,2.13
2023-03-29T01:36:19.293Z,2.78
2023-03-29T01:39:22.249Z,2.45
2023-03-29T01:42:46.886Z,2.50
2023-03-29T01:46:06.244Z,2.70
2023-03-29T01:49:22.535Z,2.03
2023-03-29T01:52:35.229Z,2.15
2023-03-29T01:55:43.094Z,1.95
2023-03-29T01:58:51.356Z,1.70
2023-03-29T02:02:00.005Z,1.95
2023-03-29T02:05:04.131Z,1.97
2023-03-29T02:08:10.992Z,1.40
2023-03-29T02:11:14.247Z,1.95
2023-03-29T02:14:17.143Z,1.80
2023-03-29T02:17:25.288Z,1.70
2023-03-29T02:20:33.274Z,1.33
2023-03-29T02:23:45.474Z,1.92
2023-03-29T02:26:49.500Z,1.55
2023-03-29T02:29:52.553Z,1.95
2023-03-29T02:33:35.257Z,0.95
2023-03-29T02:36:43.345Z,1.10
2023-03-29T02:39:49.854Z,1.20
2023-03-29T02:42:56.119Z,0.82
2023-03-29T02:45:59.305Z,1.33
2023-03-29T02:49:02.260Z,1.17
2023-03-29T02:52:19.402Z,1.10
2023-03-29T02:55:25.081Z,1.00
2023-03-29T02:58:28.980Z,1.40
2023-03-29T03:01:32.064Z,1.20
2023-03-29T03:04:35.829Z,1.27
2023-03-29T03:07:40.715Z,1.40
2023-03-29T03:10:43.949Z,1.67
2023-03-29T03:13:46.802Z,1.80
2023-03-29T03:16:50.235Z,1.70
2023-03-29T03:19:53.485Z,1.60
2023-03-29T03:22:57.607Z,2.30
2023-03-29T03:26:00.825Z,3.00
2023-03-29T03:29:05.175Z,1.95
2023-03-29T03:32:32.819Z,2.10
2023-03-29T03:36:02.966Z,1.63
2023-03-29T03:39:07.397Z,1.87
2023-03-29T03:42:10.287Z,2.28
2023-03-29T03:45:17.671Z,2.28
2023-03-29T03:48:39.251Z,3.45
2023-03-29T03:51:53.246Z,4.25
2023-03-29T03:54:56.155Z,4.20
2023-03-29T03:58:17.995Z,4.32
2023-03-29T04:01:20.838Z,4.38
2023-03-29T04:04:34.914Z,5.47
2023-03-29T04:07:54.387Z,8.35
2023-03-29T04:11:14.121Z,5.50
2023-03-29T04:14:18.005Z,4.72
2023-03-29T04:17:37.113Z,4.82
2023-03-29T04:21:00.661Z,3.15
2023-03-29T04:24:04.987Z,4.55
2023-03-29T04:27:10.972Z,4.07
2023-03-29T04:30:13.854Z,2.92
2023-03-29T04:33:54.678Z,2.72
2023-03-29T04:36:59.045Z,2.63
2023-03-29T04:40:04.112Z,2.28
2023-03-29T04:43:18.406Z,2.03
2023-03-29T04:46:33.418Z,2.92
2023-03-29T04:49:41.784Z,2.53
2023-03-29T04:52:50.926Z,2.90
2023-03-29T04:55:55.731Z,3.45
2023-03-29T04:59:18.816Z,6.33
2023-03-29T05:02:22.198Z,6.72
2023-03-29T05:05:27.215Z,7.07
2023-03-29T05:08:30.389Z,12.77
2023-03-29T05:11:53.456Z,7.38
2023-03-29T05:14:57.926Z,7.80
2023-03-29T05:18:02.839Z,17.27
2023-03-29T05:21:07.766Z,50.03
2023-03-29T05:24:12.373Z,32.42
2023-03-29T05:27:27.963Z,19.50
2023-03-29T05:30:38.762Z,8.20
2023-03-29T05:33:51.384Z,6.63
2023-03-29T05:36:54.304Z,4.65
2023-03-29T05:40:05.617Z,5.03
2023-03-29T05:43:13.561Z,5.45
2023-03-29T05:46:16.649Z,4.57
2023-03-29T05:49:25.633Z,4.32
2023-03-29T05:52:43.245Z,4.80
2023-03-29T05:55:46.837Z,6.72
2023-03-29T05:58:58.911Z,4.53
2023-03-29T06:02:03.977Z,4.13
2023-03-29T06:05:08.174Z,4.80
2023-03-29T06:08:33.560Z,4.25
2023-03-29T06:11:51.166Z,4.32
2023-03-29T06:15:07.315Z,4.72
2023-03-29T06:18:25.593Z,4.67
2023-03-29T06:21:28.658Z,22.20
2023-03-29T06:24:32.459Z,7.53
2023-03-29T06:27:40.819Z,8.43
2023-03-29T06:30:46.381Z,9.80
2023-03-29T06:33:49.910Z,9.03
2023-03-29T06:37:29.246Z,5.45
2023-03-29T06:40:44.822Z,4.82
2023-03-29T06:43:47.835Z,5.10
2023-03-29T06:46:51.907Z,4.90
2023-03-29T06:49:54.855Z,5.00
2023-03-29T06:53:08.259Z,4.00
2023-03-29T06:56:11.433Z,3.80
2023-03-29T06:59:14.243Z,3.90
2023-03-29T07:02:29.292Z,4.07
2023-03-29T07:05:45.004Z,4.20
2023-03-29T07:08:52.566Z,3.85
2023-03-29T07:12:31.138Z,4.32
2023-03-29T07:15:37.047Z,3.60
2023-03-29T07:19:06.261Z,3.60
2023-03-29T07:22:32.199Z,4.00
2023-03-29T07:25:38.515Z,2.80
2023-03-29T07:28:41.510Z,2.30
2023-03-29T07:31:44.478Z,2.72
2023-03-29T07:35:12.272Z,1.35
2023-03-29T07:38:15.733Z,0.73
2023-03-29T07:41:24.033Z,1.05
2023-03-29T07:44:33.536Z,1.80
2023-03-29T07:47:36.747Z,1.40
2023-03-29T07:50:39.781Z,0.85
2023-03-29T07:53:43.825Z,1.07
2023-03-29T07:57:07.032Z,0.63
2023-03-29T08:00:16.647Z,1.25
2023-03-29T08:03:30.421Z,0.82
2023-03-29T08:06:33.863Z,1.55
2023-03-29T08:09:37.590Z,1.20
2023-03-29T08:12:42.833Z,1.20
2023-03-29T08:15:48.690Z,1.13
2023-03-29T08:19:07.303Z,1.40
2023-03-29T08:22:25.405Z,1.45
2023-03-29T08:26:00.591Z,2.03
2023-03-29T08:29:04.165Z,1.60
2023-03-29T08:32:07.451Z,2.15
2023-03-29T08:35:10.789Z,2.05
2023-03-29T08:38:28.086Z,1.80
2023-03-29T08:41:51.186Z,2.00
2023-03-29T08:44:56.746Z,2.20
2023-03-29T08:48:02.708Z,1.95
2023-03-29T08:51:21.631Z,2.00
2023-03-29T08:54:36.179Z,1.55
2023-03-29T08:57:48.935Z,1.40
2023-03-29T09:01:06.272Z,1.60
2023-03-29T09:04:27.651Z,1.25
2023-03-29T09:07:58.211Z,1.15
2023-03-29T09:11:07.299Z,1.23
2023-03-29T09:14:36.206Z,1.30
2023-03-29T09:17:53.335Z,1.40
2023-03-29T09:21:05.461Z,1.10
2023-03-29T09:24:51.051Z,1.17
2023-03-29T09:28:06.005Z,1.35
2023-03-29T09:31:26.793Z,1.67
2023-03-29T09:34:54.767Z,1.38
2023-03-29T09:37:58.703Z,1.38
2023-03-29T09:41:14.975Z,1.90
2023-03-29T09:44:30.854Z,1.42
2023-03-29T09:47:50.060Z,1.20
2023-03-29T09:50:53.378Z,1.10
2023-03-29T09:53:57.701Z,1.33
2023-03-29T09:57:24.132Z,1.17
2023-03-29T10:00:26.973Z,1.63
2023-03-29T10:03:32.420Z,1.67
2023-03-29T10:07:01.488Z,1.55
2023-03-29T10:10:10.628Z,1.55
2023-03-29T10:13:23.294Z,1.50
2023-03-29T10:16:50.002Z,1.50
2023-03-29T10:19:57.967Z,1.77
2023-03-29T10:23:00.917Z,1.38
2023-03-29T10:26:07.949Z,1.58
2023-03-29T10:29:13.337Z,1.63
2023-03-29T10:32:32.560Z,1.55
2023-03-29T10:35:41.842Z,1.83
2023-03-29T10:38:45.242Z,1.50
2023-03-29T10:41:52.664Z,2.30
2023-03-29T10:44:58.280Z,1.88
2023-03-29T10:48:01.510Z,1.63
2023-03-29T10:51:06.151Z,1.30
2023-03-29T10:54:14.973Z,1.42
2023-03-29T10:57:51.234Z,1.80
2023-03-29T11:00:58.168Z,1.60
2023-03-29T11:04:12.726Z,1.27
2023-03-29T11:07:43.293Z,1.70
2023-03-29T11:11:07.700Z,1.65
2023-03-29T11:14:38.988Z,1.80
2023-03-29T11:17:57.659Z,1.50
2023-03-29T11:21:12.690Z,1.58
2023-03-29T11:24:34.111Z,2.03
2023-03-29T11:27:37.043Z,1.20
2023-03-29T11:30:52.034Z,1.23
2023-03-29T11:33:54.764Z,1.50
2023-03-29T11:37:00.158Z,1.50
2023-03-29T11:40:39.372Z,1.30
2023-03-29T11:43:54.904Z,1.40
2023-03-29T11:47:11.058Z,1.70
2023-03-29T11:50:56.396Z,1.67
2023-03-29T11:54:17.546Z,1.67
2023-03-29T11:57:33.759Z,1.27
2023-03-29T12:00:42.674Z,1.55
2023-03-29T12:04:01.969Z,1.10
2023-03-29T12:07:32.361Z,1.20
2023-03-29T12:10:42.158Z,2.63
2023-03-29T12:13:52.706Z,1.70
2023-03-29T12:17:10.075Z,1.55
2023-03-29T12:20:23.491Z,1.48
2023-03-29T12:23:31.147Z,1.10
2023-03-29T12:26:51.912Z,1.38
2023-03-29T12:30:34.409Z,1.30
2023-03-29T12:34:02.092Z,1.55
2023-03-29T12:38:19.390Z,1.10
2023-03-29T12:41:45.758Z,1.80
2023-03-29T12:45:19.454Z,0.95
2023-03-29T12:48:28.758Z,1.77
2023-03-29T12:51:33.594Z,0.98
2023-03-29T12:54:36.342Z,0.95
2023-03-29T12:57:45.162Z,1.30
2023-03-29T13:00:56.243Z,1.10
2023-03-29T13:04:04.026Z,0.87
2023-03-29T13:07:15.182Z,1.20
2023-03-29T13:10:52.235Z,0.95
2023-03-29T13:13:55.907Z,1.23
2023-03-29T13:17:17.852Z,1.17
2023-03-29T13:20:43.007Z,1.20
2023-03-29T13:24:10.814Z,1.45
2023-03-29T13:28:01.745Z,1.55
2023-03-29T13:31:08.780Z,1.20
2023-03-29T13:34:20.363Z,1.45
2023-03-29T13:37:23.023Z,1.30
2023-03-29T13:40:28.589Z,1.17
2023-03-29T13:43:52.350Z,1.25
2023-03-29T13:47:04.441Z,1.40
2023-03-29T13:50:19.658Z,1.45
2023-03-29T13:53:31.230Z,1.23
2023-03-29T13:56:57.159Z,1.17
2023-03-29T14:00:17.921Z,1.20
2023-03-29T14:03:30.042Z,0.95
2023-03-29T14:06:36.797Z,0.90
2023-03-29T14:09:45.329Z,1.27
2023-03-29T14:12:48.855Z,1.20
2023-03-29T14:16:04.716Z,1.00
2023-03-29T14:19:41.841Z,0.73
2023-03-29T14:22:45.739Z,0.75
2023-03-29T14:25:48.475Z,0.93
2023-03-29T14:28:54.099Z,1.00
2023-03-29T14:31:56.814Z,0.93
2023-03-29T14:35:00.710Z,0.80
2023-03-29T14:38:03.890Z,0.70
2023-03-29T14:41:07.609Z,0.70
2023-03-29T14:44:11.515Z,0.70
2023-03-29T14:47:31.785Z,0.90
2023-03-29T14:50:36.562Z,1.15
2023-03-29T14:53:41.820Z,1.13
2023-03-29T14:56:45.655Z,1.20
2023-03-29T14:59:59.721Z,1.30
2023-03-29T15:03:03.079Z,1.08
2023-03-29T15:06:06.799Z,1.13
2023-03-29T15:09:19.470Z,1.02
2023-03-29T15:12:22.698Z,1.30
2023-03-29T15:15:25.901Z,1.70
2023-03-29T15:18:34.540Z,1.55
2023-03-29T15:21:38.950Z,1.42
2023-03-29T15:24:48.945Z,1.40
2023-03-29T15:27:57.229Z,1.10
2023-03-29T15:31:20.261Z,1.05
2023-03-29T15:34:28.201Z,1.33
2023-03-29T15:37:31.730Z,0.73
2023-03-29T15:40:34.584Z,1.20
2023-03-29T15:43:37.551Z,1.00
2023-03-29T15:46:40.243Z,0.65
2023-03-29T15:49:43.311Z,0.85
2023-03-29T15:52:46.016Z,0.90
2023-03-29T15:55:52.303Z,0.90
2023-03-29T15:58:55.152Z,0.70
2023-03-29T16:01:58.926Z,1.17
2023-03-29T16:05:01.882Z,1.17
2023-03-29T16:08:04.731Z,1.55
2023-03-29T16:11:07.513Z,1.10
2023-03-29T16:14:24.285Z,0.80
2023-03-29T16:17:27.047Z,0.70
2023-03-29T16:20:29.792Z,0.70
2023-03-29T16:23:32.863Z,0.82
2023-03-29T16:26:35.660Z,0.68
2023-03-29T16:29:38.361Z,0.93
2023-03-29T16:32:41.756Z,1.15
2023-03-29T16:35:44.610Z,1.98
2023-03-29T16:38:47.433Z,3.03
2023-03-29T16:41:50.530Z,3.08
2023-03-29T16:44:54.673Z,2.10
2023-03-29T16:47:57.570Z,1.88
2023-03-29T16:51:00.894Z,2.10
2023-03-29T16:54:04.211Z,2.00
2023-03-29T16:57:07.908Z,3.60
2023-03-29T17:00:15.809Z,16.83
2023-03-29T17:03:18.866Z,8.45
2023-03-29T17:06:22.037Z,2.60
2023-03-29T17:09:25.187Z,1.85
2023-03-29T17:12:28.940Z,2.05
2023-03-29T17:15:31.949Z,1.87
2023-03-29T17:18:34.950Z,2.40
2023-03-29T17:21:37.874Z,3.88
2023-03-29T17:24:40.670Z,5.25
2023-03-29T17:27:43.495Z,4.72
2023-03-29T17:30:46.521Z,3.97
2023-03-29T17:33:52.161Z,4.10
2023-03-29T17:36:57.954Z,5.28
2023-03-29T17:40:01.104Z,3.70
2023-03-29T17:43:04.167Z,3.60
2023-03-29T17:46:07.205Z,4.90
2023-03-29T17:49:10.132Z,5.50
2023-03-29T17:52:12.993Z,4.68
2023-03-29T17:55:16.388Z,5.22
2023-03-29T17:58:19.654Z,4.22
2023-03-29T18:01:23.917Z,3.97
2023-03-29T18:04:27.087Z,3.50
2023-03-29T18:07:31.398Z,3.60
2023-03-29T18:10:35.147Z,3.83
2023-03-29T18:13:40.028Z,2.97
2023-03-29T18:16:42.998Z,2.03
2023-03-29T18:19:46.576Z,1.80
2023-03-29T18:22:49.556Z,1.40
2023-03-29T18:25:52.319Z,1.67
2023-03-29T18:28:55.562Z,1.70
2023-03-29T18:32:03.455Z,1.60
2023-03-29T18:35:06.947Z,2.45
2023-03-29T18:38:09.726Z,3.38
2023-03-29T18:41:14.143Z,5.07
2023-03-29T18:44:17.309Z,4.28
2023-03-29T18:47:20.401Z,3.03
2023-03-29T18:50:23.510Z,3.25
2023-03-29T18:53:26.639Z,6.65
2023-03-29T18:56:29.912Z,5.53
2023-03-29T18:59:32.804Z,7.93
2023-03-29T19:02:36.355Z,5.67
2023-03-29T19:05:40.085Z,6.20
2023-03-29T19:08:42.950Z,4.32
2023-03-29T19:11:48.105Z,4.28
2023-03-29T19:14:51.438Z,3.85
2023-03-29T19:17:54.487Z,3.73
2023-03-29T19:20:57.492Z,5.05
2023-03-29T19:24:04.038Z,4.70
2023-03-29T19:27:10.172Z,4.53
2023-03-29T19:30:14.871Z,4.03
2023-03-29T19:33:18.571Z,8.27
2023-03-29T19:36:22.328Z,5.53
2023-03-29T19:39:26.830Z,6.15
2023-03-29T19:42:30.195Z,15.25
2023-03-29T19:45:33.811Z,9.02
2023-03-29T19:48:37.929Z,7.87
2023-03-29T19:51:42.501Z,4.80
2023-03-29T19:54:45.666Z,5.05
2023-03-29T19:57:48.897Z,4.78
2023-03-29T20:00:53.327Z,4.15
2023-03-29T20:03:56.340Z,5.00
2023-03-29T20:06:59.502Z,4.97
2023-03-29T20:10:02.968Z,5.15
2023-03-29T20:13:06.767Z,3.95
2023-03-29T20:16:13.300Z,4.20
2023-03-29T20:19:17.422Z,5.23
2023-03-29T20:22:20.354Z,5.28
2023-03-29T20:25:23.147Z,4.47
2023-03-29T20:28:26.450Z,4.57
2023-03-29T20:31:30.159Z,4.00
2023-03-29T20:34:33.234Z,3.73
2023-03-29T20:37:36.128Z,3.30
2023-03-29T20:40:40.975Z,3.55
2023-03-29T20:43:43.940Z,5.57
2023-03-29T20:46:54.637Z,6.40
2023-03-29T20:49:57.998Z,5.20
2023-03-29T20:53:04.170Z,5.50
2023-03-29T20:56:06.985Z,5.60
2023-03-29T20:59:12.725Z,5.85
2023-03-29T21:02:21.435Z,11.35
2023-03-29T21:05:28.804Z,10.67
2023-03-29T21:08:31.936Z,10.52
2023-03-29T21:11:34.651Z,9.32
2023-03-29T21:14:38.037Z,10.77
2023-03-29T21:17:41.368Z,8.70
2023-03-29T21:20:44.477Z,8.33
2023-03-29T21:23:47.198Z,6.78
2023-03-29T21:26:51.189Z,5.53
2023-03-29T21:29:54.280Z,5.85
2023-03-29T21:32:57.114Z,8.30
2023-03-29T21:36:00.892Z,10.20
2023-03-29T21:39:04.027Z,6.82
2023-03-29T21:42:07.261Z,6.57
2023-03-29T21:45:10.560Z,6.25
2023-03-29T21:48:13.260Z,5.70
2023-03-29T21:51:16.107Z,3.83
2023-03-29T21:54:18.830Z,4.05
2023-03-29T21:57:22.374Z,2.88
2023-03-29T22:00:25.400Z,5.05
2023-03-29T22:03:28.604Z,5.20
2023-03-29T22:06:31.488Z,5.10
2023-03-29T22:09:35.461Z,5.15
2023-03-29T22:12:39.586Z,4.25
2023-03-29T22:15:42.751Z,3.20
2023-03-29T22:18:49.590Z,3.25
2023-03-29T22:21:52.583Z,2.67
2023-03-29T22:24:55.937Z,3.17
2023-03-29T22:27:58.651Z,2.60
2023-03-29T22:31:03.203Z,2.50
2023-03-29T22:34:06.297Z,2.47
2023-03-29T22:37:08.994Z,2.77
2023-03-29T22:40:13.358Z,2.50
2023-03-29T22:43:16.157Z,2.70
2023-03-29T22:46:20.196Z,2.60
2023-03-29T22:49:23.110Z,2.67
2023-03-29T22:52:25.883Z,3.17
2023-03-29T22:55:28.612Z,2.78
2023-03-29T22:58:31.404Z,3.10
2023-03-29T23:01:34.365Z,2.97
2023-03-29T23:04:38.852Z,3.20
2023-03-29T23:07:41.673Z,3.07
2023-03-29T23:10:46.526Z,3.05
2023-03-29T23:13:49.597Z,2.70
2023-03-29T23:16:52.381Z,2.63
2023-03-29T23:19:55.353Z,2.55
2023-03-29T23:22:59.561Z,2.63
2023-03-29T23:26:02.605Z,2.72
2023-03-29T23:29:05.608Z,2.85
2023-03-29T23:32:08.870Z,2.67
2023-03-29T23:35:11.654Z,3.58
2023-03-29T23:38:14.403Z,3.80
2023-03-29T23:41:17.881Z,2.45
2023-03-29T23:44:20.646Z,2.60
2023-03-29T23:47:23.657Z,2.38
2023-03-29T23:50:28.818Z,2.40
2023-03-29T23:53:32.232Z,2.40
2023-03-29T23:56:35.230Z,2.60
2023-03-29T23:59:38.042Z,3.28
